Time;durP1;ratioP1;P1;durP2;ratioP2;P2;SDS_P1;SDS_P2;PMS_P1;PMS_P2;Temp;Humidity;BMP_temperature;BMP_pressure;BME280_temperature;BME280_humidity;BME280_pressure;Samples;Min_cycle;Max_cycle;Signal;HPM_P1;HPM_P2
2021/03/17 06:59:30;;;;;;;15.98;12.88;;;;;;;18.10;53.51;100513.19;2110935;27;20331;-45
2021/03/17 07:00:31;;;;;;;17.37;13.30;;;;;;;18.08;53.60;100504.25;2104509;28;20032;-46
2021/03/17 07:01:35;;;;;;;15.23;12.13;;;;;;;18.06;53.45;100500.81;2100218;28;20399;-47
2021/03/17 07:02:38;;;;;;;14.82;12.75;;;;;;;18.04;53.50;100490.03;2103978;28;20078;-46
2021/03/17 07:03:39;;;;;;;16.38;13.20;;;;;;;18.03;53.15;100479.25;2100453;28;20043;-47
2021/03/17 07:04:39;;;;;;;15.10;13.37;;;;;;;18.02;53.27;100463.91;2103125;28;20439;-47
2021/03/17 07:05:41;;;;;;;13.93;12.20;;;;;;;18.02;53.06;100472.06;2102607;28;20411;-47
2021/03/17 07:06:43;;;;;;;14.32;12.80;;;;;;;18.00;53.04;100447.66;2098988;28;20013;-47
2021/03/17 07:07:51;;;;;;;12.82;11.10;;;;;;;18.00;53.09;100447.66;2098560;28;20249;-48
2021/03/17 07:08:52;;;;;;;14.68;12.68;;;;;;;18.00;53.10;100453.97;2101054;28;20028;-46
2021/03/17 07:09:59;;;;;;;13.50;11.15;;;;;;;18.00;53.06;100448.50;2096046;28;20024;-46
2021/03/17 07:11:01;;;;;;;14.88;13.27;;;;;;;18.03;53.19;100446.50;2098704;28;20021;-46
2021/03/17 07:12:06;;;;;;;13.88;12.40;;;;;;;18.02;53.02;100436.63;2113119;28;20020;-46
2021/03/17 07:13:09;;;;;;;13.52;12.07;;;;;;;18.04;52.91;100434.63;2099826;28;20429;-47
2021/03/17 07:14:10;;;;;;;13.43;11.90;;;;;;;18.07;52.87;100439.81;2096224;28;20029;-47
2021/03/17 07:15:11;;;;;;;12.67;11.37;;;;;;;18.09;52.78;100441.41;2101746;28;20024;-47
2021/03/17 07:16:12;;;;;;;13.35;11.95;;;;;;;18.12;52.67;100456.63;2099769;28;20056;-46
2021/03/17 07:17:30;;;;;;;14.80;12.77;;;;;;;18.15;52.57;100461.81;2104165;28;20766;-47
2021/03/17 07:18:31;;;;;;;14.70;12.23;;;;;;;18.15;52.65;100468.16;2110606;28;20412;-45
2021/03/17 07:19:39;;;;;;;13.55;11.38;;;;;;;18.15;52.42;100467.25;2103143;28;20099;-46
2021/03/17 07:20:43;;;;;;;13.35;11.95;;;;;;;18.17;52.71;100478.91;2103759;28;20553;-46
2021/03/17 07:59:27;;;;;;;12.75;9.98;;;;;;;18.48;51.91;100548.03;2103703;27;20332;-60
2021/03/17 08:00:27;;;;;;;13.10;10.60;;;;;;;18.47;51.87;100559.97;2096518;28;20106;-60
2021/03/17 08:01:28;;;;;;;11.83;10.10;;;;;;;18.47;51.63;100564.53;2092310;28;20052;-60
2021/03/17 08:02:31;;;;;;;11.70;10.48;;;;;;;18.44;51.75;100565.69;2095211;28;20013;-60
2021/03/17 08:03:31;;;;;;;11.48;10.27;;;;;;;18.42;51.63;100587.66;2090292;28;20025;-61
2021/03/17 08:04:34;;;;;;;12.17;10.87;;;;;;;18.40;51.71;100586.94;2094922;28;20108;-61
2021/03/17 08:05:35;;;;;;;11.73;10.32;;;;;;;18.41;51.73;100582.34;2092129;28;20029;-61
2021/03/17 08:06:36;;;;;;;12.68;10.57;;;;;;;18.42;51.65;100590.41;2095890;28;20020;-61
2021/03/17 08:07:37;;;;;;;13.23;11.83;;;;;;;18.41;51.97;100582.34;2095406;28;20108;-61
2021/03/17 08:08:40;;;;;;;11.25;9.93;;;;;;;18.41;51.71;100588.66;2096128;28;20052;-61
2021/03/17 08:09:40;;;;;;;11.52;10.32;;;;;;;18.41;51.80;100583.19;2097139;28;20085;-61
2021/03/17 08:10:43;;;;;;;13.07;10.70;;;;;;;18.43;51.64;100599.44;2097637;28;20112;-61
2021/03/17 08:11:44;;;;;;;12.05;9.93;;;;;;;18.43;51.53;100597.56;2094831;28;20107;-60
2021/03/17 08:12:45;;;;;;;11.18;9.98;;;;;;;18.43;51.77;100589.38;2090218;28;20025;-61
2021/03/17 08:13:49;;;;;;;11.23;9.90;;;;;;;18.42;51.89;100590.41;2089986;28;20077;-61
2021/03/17 08:14:51;;;;;;;10.95;9.70;;;;;;;18.42;51.72;100601.31;2089606;28;20025;-61
2021/03/17 08:15:51;;;;;;;10.27;9.27;;;;;;;18.45;51.80;100604.75;2087387;28;20025;-61
2021/03/17 08:16:52;;;;;;;12.33;10.23;;;;;;;18.42;51.69;100601.31;2088758;28;20312;-60
2021/03/17 08:17:53;;;;;;;13.17;10.70;;;;;;;18.42;51.55;100609.50;2091544;28;20146;-64
2021/03/17 08:18:53;;;;;;;11.53;9.70;;;;;;;18.41;51.95;100607.75;2092141;28;20037;-64
2021/03/17 08:20:18;;;;;;;10.57;9.47;;;;;;;18.41;51.71;100615.94;2086723;28;20388;-64
2021/03/17 08:21:44;;;;;;;12.77;10.57;;;;;;;18.40;51.79;100618.84;2089596;28;20395;-64
2021/03/17 08:22:46;;;;;;;10.25;9.07;;;;;;;18.41;51.58;100615.94;2092455;28;20017;-65
2021/03/17 08:23:50;;;;;;;;;;;;;;;18.39;51.50;100617.94;2096123;28;20116;-64
2021/03/17 08:24:50;;;;;;;12.75;10.02;;;;;;;18.39;51.60;100625.28;2093262;28;19947;-65
2021/03/17 08:25:51;;;;;;;10.73;9.47;;;;;;;18.36;51.75;100622.81;2095772;28;20025;-65
2021/03/17 08:26:52;;;;;;;10.48;9.38;;;;;;;18.35;51.56;100624.69;2095939;28;20107;-64
2021/03/17 08:28:16;;;;;;;10.20;8.83;;;;;;;18.34;51.59;100625.66;2094954;28;20311;-65
2021/03/17 08:29:16;;;;;;;11.07;9.60;;;;;;;18.33;51.72;100629.41;2094050;28;20036;-64
2021/03/17 08:30:17;;;;;;;10.50;9.40;;;;;;;18.34;51.59;100628.38;2094417;28;20024;-64
2021/03/17 08:31:36;;;;;;;10.17;8.90;;;;;;;18.34;51.48;100630.25;2093858;28;20020;-64
2021/03/17 08:33:06;;;;;;;10.65;9.48;;;;;;;18.33;51.56;100629.41;2093618;28;20814;-64
2021/03/17 08:34:18;;;;;;;9.93;8.93;;;;;;;18.33;51.39;100634.88;2070932;28;20150;-64
2021/03/17 08:35:19;;;;;;;9.82;8.35;;;;;;;18.35;51.51;100632.00;2094791;28;20024;-64
2021/03/17 08:36:20;;;;;;;10.70;9.47;;;;;;;18.35;51.46;100634.75;2094946;28;20107;-64
2021/03/17 08:37:20;;;;;;;13.43;9.60;;;;;;;18.35;51.24;100626.56;2095460;28;20024;-64
2021/03/17 08:38:21;;;;;;;10.67;9.37;;;;;;;18.34;51.52;100622.94;2095882;28;20082;-64
2021/03/17 08:39:34;;;;;;;10.73;9.63;;;;;;;18.33;51.45;100629.41;2096207;28;20036;-64
2021/03/17 08:40:37;;;;;;;9.93;8.88;;;;;;;18.32;51.33;100626.78;2093256;28;20529;-64
2021/03/17 08:41:44;;;;;;;10.90;9.60;;;;;;;18.29;51.56;100625.19;2095635;28;20473;-64
2021/03/17 08:42:44;;;;;;;10.05;8.85;;;;;;;18.30;51.58;100629.69;2095178;28;20032;-64
2021/03/17 08:43:46;;;;;;;11.20;9.33;;;;;;;18.31;51.31;100634.13;2096225;28;20694;-58
2021/03/17 08:44:48;;;;;;;8.80;7.90;;;;;;;18.30;51.22;100629.69;2094480;28;20021;-64
2021/03/17 08:45:48;;;;;;;10.30;8.95;;;;;;;18.30;51.33;100629.69;2080773;28;20041;-64
2021/03/17 08:46:51;;;;;;;12.80;9.00;;;;;;;18.29;51.36;100633.38;2079681;28;20037;-64
2021/03/17 08:47:52;;;;;;;11.32;9.77;;;;;;;18.29;51.34;100637.97;2080809;28;20048;-64
2021/03/17 08:48:56;;;;;;;10.75;9.13;;;;;;;18.28;51.45;100639.84;2085333;28;20052;-64
2021/03/17 08:50:17;;;;;;;9.45;8.30;;;;;;;18.27;51.44;100635.38;2077534;28;20033;-64
2021/03/17 08:51:17;;;;;;;9.80;8.60;;;;;;;18.26;51.27;100639.13;2077481;28;20348;-64
2021/03/17 08:52:23;;;;;;;10.43;8.50;;;;;;;18.27;51.24;100640.81;2087209;28;20024;-65
2021/03/17 08:53:40;;;;;;;10.77;8.77;;;;;;;18.27;51.24;100634.50;2083789;28;20153;-65
2021/03/17 08:54:47;;;;;;;11.43;8.88;;;;;;;18.25;51.33;100631.94;2081180;28;20068;-64
2021/03/17 08:55:49;;;;;;;9.70;8.70;;;;;;;18.25;51.45;100634.66;2082464;28;20510;-64
2021/03/17 08:56:50;;;;;;;10.15;9.02;;;;;;;18.25;51.26;100640.13;2082181;28;20021;-64
2021/03/17 08:58:12;;;;;;;9.17;8.10;;;;;;;18.25;51.43;100648.31;2078354;28;20569;-64
2021/03/17 08:59:16;;;;;;;11.25;9.50;;;;;;;18.24;51.29;100638.38;2080857;28;20488;-60
2021/03/17 09:00:54;;;;;;;10.35;9.05;;;;;;;18.25;51.17;100631.94;2080552;28;20388;-58
2021/03/17 09:01:54;;;;;;;9.45;7.65;;;;;;;18.26;51.11;100633.66;2083893;28;20025;-59
2021/03/17 09:02:55;;;;;;;9.60;8.40;;;;;;;18.27;50.99;100629.91;2081156;28;20037;-59
2021/03/17 09:03:55;;;;;;;10.47;8.67;;;;;;;18.29;51.09;100637.97;2076283;28;20038;-58
2021/03/17 09:04:57;;;;;;;9.57;8.37;;;;;;;18.29;51.08;100644.31;2079767;28;20056;-57
2021/03/17 09:06:28;;;;;;;9.57;7.90;;;;;;;18.33;51.07;100634.88;2086232;28;20033;-58
2021/03/17 09:07:31;;;;;;;9.93;7.95;;;;;;;18.35;51.12;100638.31;2081263;28;20130;-62
2021/03/17 09:08:55;;;;;;;12.68;8.40;;;;;;;18.36;50.91;100641.91;2079949;28;20038;-60
2021/03/17 09:10:08;;;;;;;10.23;7.63;;;;;;;18.35;51.21;100638.31;2076313;28;20108;-61
2021/03/17 09:11:09;;;;;;;9.27;7.93;;;;;;;18.35;51.29;100634.75;2070196;28;20120;-61
2021/03/17 09:12:09;;;;;;;10.23;9.00;;;;;;;18.35;51.45;100643.78;2073430;28;20179;-61
2021/03/17 09:13:11;;;;;;;8.43;7.23;;;;;;;18.36;51.54;100631.84;2070496;28;20064;-61
2021/03/17 09:14:20;;;;;;;9.32;7.85;;;;;;;18.37;51.49;100651.81;2069525;28;20104;-61
2021/03/17 09:15:21;;;;;;;9.93;8.10;;;;;;;18.32;51.57;100635.84;2073041;28;20087;-60
2021/03/17 09:16:22;;;;;;;9.40;8.43;;;;;;;18.32;51.50;100630.38;2074925;28;20065;-60
2021/03/17 09:17:28;;;;;;;10.10;7.70;;;;;;;18.29;51.69;100627.94;2076515;28;20104;-60
2021/03/17 09:18:28;;;;;;;11.52;7.63;;;;;;;18.28;51.62;100631.66;2072739;28;20045;-60
2021/03/17 09:19:29;;;;;;;9.30;8.27;;;;;;;18.28;51.46;100626.22;2073798;28;20037;-62
2021/03/17 09:20:41;;;;;;;9.87;8.03;;;;;;;18.29;51.65;100630.66;2071230;28;20441;-60
2021/03/17 09:21:45;;;;;;;8.80;7.80;;;;;;;18.28;51.59;100631.66;2067697;28;20040;-61
2021/03/17 09:23:10;;;;;;;12.07;9.48;;;;;;;18.33;51.57;100629.41;2069008;28;20385;-62
2021/03/17 09:24:43;;;;;;;11.20;7.88;;;;;;;18.35;51.86;100635.59;2071562;28;20528;-61
2021/03/17 09:25:51;;;;;;;9.27;7.68;;;;;;;18.33;51.69;100621.22;2063652;28;20161;-60
2021/03/17 09:27:05;;;;;;;10.02;7.97;;;;;;;18.33;51.84;100632.13;2068827;28;20033;-62
2021/03/17 09:28:27;;;;;;;10.30;8.65;;;;;;;18.28;50.70;100630.81;2073835;28;20212;-62
2021/03/17 09:29:28;;;;;;;14.43;8.63;;;;;;;18.23;50.08;100638.50;2062868;28;20160;-62
2021/03/17 09:30:34;;;;;;;12.30;10.30;;;;;;;18.18;50.43;100631.59;2062197;28;20416;-61
2021/03/17 09:31:35;;;;;;;10.80;9.63;;;;;;;18.18;50.29;100628.00;2071276;28;20096;-56
2021/03/17 09:32:35;;;;;;;10.13;7.47;;;;;;;18.19;50.94;100627.00;2076820;28;20114;-57
2021/03/17 09:33:42;;;;;;;10.43;8.63;;;;;;;18.20;51.39;100624.13;2080757;28;20040;-57
2021/03/17 09:34:43;;;;;;;9.88;8.45;;;;;;;18.20;50.96;100632.31;2072800;28;20029;-57
2021/03/17 09:35:53;;;;;;;9.90;8.57;;;;;;;18.21;51.07;100625.00;2073311;28;20057;-56
2021/03/17 09:37:05;;;;;;;11.27;8.38;;;;;;;18.22;50.91;100626.72;2076369;28;20029;-57
2021/03/17 09:38:08;;;;;;;10.43;9.05;;;;;;;18.21;50.83;100616.81;2074666;28;20037;-54
2021/03/17 09:39:09;;;;;;;10.82;8.52;;;;;;;18.22;50.58;100621.25;2078139;28;20108;-55
2021/03/17 09:40:14;;;;;;;12.97;9.13;;;;;;;18.23;50.61;100622.13;2075009;28;20108;-56
2021/03/17 09:41:21;;;;;;;10.18;8.45;;;;;;;18.25;50.37;100625.59;2073260;28;20156;-57
2021/03/17 09:42:22;;;;;;;10.13;8.02;;;;;;;18.25;50.53;100620.13;2078868;28;20040;-57
2021/03/17 09:43:38;;;;;;;11.97;9.13;;;;;;;18.26;50.41;100620.00;2076837;28;20049;-57
2021/03/17 09:44:38;;;;;;;10.80;8.10;;;;;;;18.26;50.59;100625.47;2073429;28;20041;-57
2021/03/17 09:45:39;;;;;;;11.03;8.67;;;;;;;18.27;50.61;100624.47;2075864;28;20049;-56
2021/03/17 09:46:41;;;;;;;10.47;7.83;;;;;;;18.29;50.67;100625.19;2073351;28;20048;-57
2021/03/17 09:47:42;;;;;;;9.07;7.75;;;;;;;18.31;50.74;100627.81;2078716;28;20041;-57
2021/03/17 09:48:42;;;;;;;12.20;8.50;;;;;;;18.31;50.62;100620.47;2079062;28;20053;-55
2021/03/17 09:49:43;;;;;;;11.20;8.90;;;;;;;18.31;50.63;100625.94;2074685;28;20044;-57
2021/03/17 09:50:45;;;;;;;11.27;9.17;;;;;;;18.31;50.66;100625.94;2074829;28;20096;-59
2021/03/17 09:51:52;;;;;;;9.00;7.90;;;;;;;18.32;50.67;100624.94;2067710;28;20096;-60
2021/03/17 09:52:52;;;;;;;10.18;7.68;;;;;;;18.33;50.73;100623.09;2087051;28;20041;-57
2021/03/17 09:53:54;;;;;;;10.37;8.03;;;;;;;18.30;50.87;100618.75;2083050;28;20075;-58
2021/03/17 09:54:55;;;;;;;10.90;8.40;;;;;;;18.29;50.61;100619.75;2074520;28;20033;-59
2021/03/17 09:55:55;;;;;;;12.23;8.10;;;;;;;18.28;50.93;100615.28;2076502;28;20440;-59
2021/03/17 09:57:01;;;;;;;10.40;8.27;;;;;;;18.26;50.77;100611.81;2077067;28;20088;-60
2021/03/17 09:58:06;;;;;;;9.25;7.32;;;;;;;18.25;50.94;100621.03;2079557;28;20122;-61
2021/03/17 09:59:32;;;;;;;10.05;7.43;;;;;;;18.24;50.92;100619.28;2076745;28;20384;-60
2021/03/17 10:00:35;;;;;;;10.65;7.53;;;;;;;18.23;51.06;100612.09;2069319;28;20048;-60
2021/03/17 10:01:46;;;;;;;10.05;7.63;;;;;;;18.24;50.89;100619.28;2076202;28;20440;-59
2021/03/17 10:02:47;;;;;;;10.88;7.55;;;;;;;18.25;50.89;100620.13;2071151;28;20495;-60
2021/03/17 10:03:47;;;;;;;9.67;8.57;;;;;;;18.25;50.84;100604.66;2067797;28;20041;-60
2021/03/17 10:04:51;;;;;;;8.90;7.37;;;;;;;18.24;50.76;100611.09;2076436;28;20340;-61
2021/03/17 10:05:57;;;;;;;7.88;7.05;;;;;;;18.23;50.88;100617.56;2075696;28;20100;-61
2021/03/17 10:06:58;;;;;;;8.25;7.05;;;;;;;18.24;50.68;100616.53;2070529;28;20029;-60
2021/03/17 10:07:59;;;;;;;8.40;7.28;;;;;;;18.24;50.73;100613.81;2073134;28;20432;-60
2021/03/17 10:08:59;;;;;;;8.57;7.07;;;;;;;18.24;50.92;100613.81;2072997;28;20030;-60
2021/03/17 10:10:00;;;;;;;10.40;7.97;;;;;;;18.23;51.03;100612.09;2065536;28;20038;-60
2021/03/17 10:11:02;;;;;;;8.53;7.07;;;;;;;18.23;50.90;100620.28;2066904;28;20452;-60
2021/03/17 10:12:07;;;;;;;10.35;7.32;;;;;;;18.24;51.05;100613.81;2073256;28;20352;-60
2021/03/17 10:13:07;;;;;;;7.78;6.97;;;;;;;18.23;50.87;100609.38;2072343;28;20103;-62
2021/03/17 10:14:13;;;;;;;9.63;7.40;;;;;;;18.23;50.61;100616.66;2072586;28;20065;-62
2021/03/17 10:15:16;;;;;;;9.45;7.88;;;;;;;18.22;50.88;100604.88;2072146;28;20041;-62
2021/03/17 10:16:16;;;;;;;7.88;6.72;;;;;;;18.21;50.80;100611.34;2072617;28;20029;-62
2021/03/17 10:17:20;;;;;;;10.33;7.50;;;;;;;18.21;50.67;100605.91;2071230;28;20029;-62
2021/03/17 10:18:20;;;;;;;10.45;8.20;;;;;;;18.20;50.71;100606.88;2070941;28;20488;-60
2021/03/17 10:19:21;;;;;;;9.67;7.57;;;;;;;18.20;50.69;100612.34;2070133;28;20030;-62
2021/03/17 10:20:26;;;;;;;8.63;7.30;;;;;;;18.19;50.65;100605.16;2063786;28;20118;-60
2021/03/17 10:21:27;;;;;;;9.00;7.20;;;;;;;18.19;50.60;100597.84;2072107;28;20030;-60
2021/03/17 10:22:29;;;;;;;7.83;6.93;;;;;;;18.20;50.51;100601.41;2072409;28;20033;-60
2021/03/17 10:23:30;;;;;;;10.15;7.10;;;;;;;18.20;50.60;100609.59;2066502;28;20496;-60
2021/03/17 10:24:40;;;;;;;8.10;7.23;;;;;;;18.19;50.74;100606.00;2069157;28;20067;-60
2021/03/17 10:25:40;;;;;;;9.23;7.40;;;;;;;18.19;50.62;100600.56;2068624;28;20033;-62
2021/03/17 10:26:41;;;;;;;9.13;6.93;;;;;;;18.19;50.71;100605.16;2081399;28;20401;-60
2021/03/17 10:27:46;;;;;;;7.60;6.67;;;;;;;18.18;50.89;100604.31;2071638;28;20048;-62
2021/03/17 10:28:47;;;;;;;8.73;7.18;;;;;;;18.17;50.75;100596.22;2067129;28;20043;-60
2021/03/17 10:29:49;;;;;;;8.77;6.82;;;;;;;18.17;50.74;100593.50;2070586;28;20407;-60
2021/03/17 10:30:53;;;;;;;8.52;6.85;;;;;;;18.17;50.58;100588.03;2073755;28;20501;-60
2021/03/17 10:31:56;;;;;;;9.95;7.35;;;;;;;18.18;50.77;100597.97;2080431;28;20093;-61
2021/03/17 10:33:01;;;;;;;8.65;6.95;;;;;;;18.18;50.78;100587.06;2074220;28;20092;-60
2021/03/17 10:34:12;;;;;;;8.88;7.25;;;;;;;18.18;50.56;100593.38;2077825;28;20026;-60
2021/03/17 10:35:16;;;;;;;7.72;6.93;;;;;;;18.17;50.63;100585.31;2076793;28;20343;-55
2021/03/17 10:36:16;;;;;;;9.60;7.60;;;;;;;18.17;50.73;100599.81;2072844;28;20069;-60
2021/03/17 10:37:20;;;;;;;7.87;6.50;;;;;;;18.19;50.61;100588.78;2079445;28;20030;-59
2021/03/17 10:38:20;;;;;;;12.55;7.40;;;;;;;18.18;50.53;100590.66;2072429;28;20424;-59
2021/03/17 10:39:29;;;;;;;9.77;7.43;;;;;;;18.17;50.61;100590.78;2071361;28;20030;-59
2021/03/17 10:40:30;;;;;;;11.27;7.15;;;;;;;18.15;50.86;100593.66;2068187;28;20026;-59
2021/03/17 10:41:43;;;;;;;9.63;7.55;;;;;;;18.15;50.78;100592.75;2067890;28;20049;-59
2021/03/17 10:42:45;;;;;;;12.13;7.57;;;;;;;18.14;50.57;100596.50;2077242;28;20057;-59
2021/03/17 10:43:45;;;;;;;10.88;7.10;;;;;;;18.12;50.69;100599.34;2080910;28;20103;-59
2021/03/17 10:45:06;;;;;;;9.23;6.60;;;;;;;18.12;50.81;100593.91;2078978;28;20529;-60
2021/03/17 10:46:06;;;;;;;10.05;6.75;;;;;;;18.15;50.68;100584.59;2078158;28;20030;-59
2021/03/17 10:47:09;;;;;;;9.47;7.10;;;;;;;18.15;50.58;100599.13;2080355;28;20030;-59
2021/03/17 10:48:14;;;;;;;9.93;6.85;;;;;;;18.14;50.59;100591.91;2078426;28;20416;-61
2021/03/17 10:49:15;;;;;;;17.63;9.02;;;;;;;18.16;50.62;100589.06;2080523;28;20345;-59
2021/03/17 10:50:33;;;;;;;21.67;10.63;;;;;;;18.18;50.90;100593.38;2077912;28;20036;-59
2021/03/17 10:51:34;;;;;;;24.67;11.57;;;;;;;18.19;51.36;100597.84;2075317;28;20077;-59
2021/03/17 10:52:41;;;;;;;30.37;14.43;;;;;;;18.18;52.66;100592.53;2080600;28;20025;-59
2021/03/17 10:53:44;;;;;;;37.28;15.60;;;;;;;18.18;52.73;100589.78;2077771;28;20044;-58
2021/03/17 10:54:46;;;;;;;33.88;14.95;;;;;;;18.16;53.19;100586.34;2079995;28;20033;-59
2021/03/17 10:55:48;;;;;;;36.20;15.68;;;;;;;18.15;53.63;100592.75;2065890;28;20046;-60
2021/03/17 11:03:25;;;;;;;17.63;9.73;;;;;;;18.90;49.67;100605.34;2113754;27;20371;-40
2021/03/17 11:04:25;;;;;;;17.80;9.68;;;;;;;18.67;49.85;100604.63;2113641;28;20066;-40
2021/03/17 11:05:28;;;;;;;13.03;8.57;;;;;;;18.51;50.47;100598.78;2108630;28;20031;-40
2021/03/17 11:06:28;;;;;;;17.15;7.95;;;;;;;18.40;50.48;100607.91;2109800;28;20060;-40
2021/03/17 11:07:45;;;;;;;16.03;8.10;;;;;;;18.31;50.97;100612.28;2098916;28;20111;-40
2021/03/17 11:09:01;;;;;;;12.88;8.38;;;;;;;18.24;50.93;100602.03;2087971;28;20100;-40
2021/03/17 11:10:02;;;;;;;13.32;8.68;;;;;;;18.20;50.97;100601.41;2086245;28;20176;-40
2021/03/17 11:11:04;;;;;;;16.47;10.00;;;;;;;18.17;50.89;100591.63;2084521;28;20040;-40
2021/03/17 11:12:11;;;;;;;12.23;8.90;;;;;;;18.14;50.94;100591.03;2089947;28;94358;-40
2021/03/17 11:13:12;;;;;;;15.10;8.00;;;;;;;18.13;50.91;100589.34;2087268;28;20053;-40
2021/03/17 11:14:30;;;;;;;12.20;7.87;;;;;;;18.12;50.94;100598.50;2094044;28;20033;-41
2021/03/17 11:15:31;;;;;;;11.88;8.55;;;;;;;18.14;50.71;100593.78;2095509;28;20124;-40
2021/03/17 11:16:38;;;;;;;12.07;8.15;;;;;;;18.16;50.75;100589.06;2093035;28;20442;-41
2021/03/17 11:17:38;;;;;;;12.20;8.25;;;;;;;18.16;50.61;100589.06;2093036;28;20572;-41
2021/03/17 11:18:52;;;;;;;11.27;8.00;;;;;;;18.18;50.69;100589.78;2093927;28;20045;-41
2021/03/17 11:19:59;;;;;;;10.55;7.72;;;;;;;18.17;50.82;100590.78;2094395;28;20025;-40
2021/03/17 11:21:07;;;;;;;12.77;8.02;;;;;;;18.16;50.58;100594.50;2091312;28;20127;-40
2021/03/17 11:22:07;;;;;;;11.30;7.68;;;;;;;18.15;50.92;100604.56;2091434;28;20079;-40
2021/03/17 11:23:24;;;;;;;17.87;7.70;;;;;;;18.15;51.00;100598.22;2097143;28;20032;-41
2021/03/17 11:24:25;;;;;;;9.90;6.82;;;;;;;18.14;51.00;100600.09;2090827;28;20120;-40
2021/03/17 11:25:26;;;;;;;16.23;8.73;;;;;;;18.13;50.91;100598.38;2095301;28;20082;-41
2021/03/17 11:26:45;;;;;;;14.40;8.50;;;;;;;18.12;51.25;100606.69;2095800;28;20053;-41
2021/03/17 11:27:46;;;;;;;13.32;7.10;;;;;;;18.12;51.08;100598.50;2092869;28;20032;-41
2021/03/17 11:28:47;;;;;;;16.80;9.20;;;;;;;18.11;51.06;100596.78;2093476;28;20456;-41
2021/03/17 11:29:51;;;;;;;13.43;8.00;;;;;;;18.12;51.00;100603.94;2090192;28;20021;-41
2021/03/17 11:31:02;;;;;;;13.30;7.90;;;;;;;18.12;50.87;100601.22;2089547;28;20043;-40
2021/03/17 11:32:10;;;;;;;13.35;7.82;;;;;;;18.11;51.16;100594.03;2087293;28;20022;-41
2021/03/17 11:33:14;;;;;;;13.00;7.95;;;;;;;18.13;50.88;100597.53;2081053;28;20046;-40
2021/03/17 11:34:16;;;;;;;15.98;8.80;;;;;;;18.14;50.95;100596.50;2080270;28;20069;-41
2021/03/17 11:35:18;;;;;;;14.35;8.60;;;;;;;18.15;50.95;100609.13;2089414;28;20024;-40
2021/03/17 11:36:18;;;;;;;12.90;7.60;;;;;;;18.17;50.84;100601.69;2087695;28;20100;-41
2021/03/17 11:37:19;;;;;;;13.67;7.90;;;;;;;18.17;50.96;100607.16;2086510;28;20057;-41
2021/03/17 11:38:20;;;;;;;13.53;7.73;;;;;;;18.16;50.86;100605.44;2087666;28;20017;-40
2021/03/17 11:39:21;;;;;;;10.60;7.10;;;;;;;18.17;51.08;100612.59;2084692;28;20044;-40
2021/03/17 11:40:21;;;;;;;13.40;7.77;;;;;;;18.17;50.88;100609.88;2079315;28;20494;-40
2021/03/17 11:41:22;;;;;;;12.00;7.63;;;;;;;18.13;51.06;100605.69;2085282;28;20120;-40
2021/03/17 11:42:22;;;;;;;12.40;6.93;;;;;;;18.10;51.13;100605.94;2085112;28;20140;-40
2021/03/17 11:43:26;;;;;;;12.80;6.53;;;;;;;18.05;51.00;100595.41;2079194;28;20309;-40
2021/03/17 11:44:27;;;;;;;13.55;8.85;;;;;;;18.02;50.82;100594.81;2081981;28;20025;-40
2021/03/17 11:45:27;;;;;;;14.87;8.23;;;;;;;18.00;51.06;100601.25;2087339;28;20100;-40
2021/03/17 11:46:28;;;;;;;12.97;7.80;;;;;;;17.99;51.22;100596.81;2081053;28;20029;-40
2021/03/17 11:47:28;;;;;;;13.03;7.87;;;;;;;17.98;51.06;100592.38;2087023;28;20322;-40
2021/03/17 11:48:30;;;;;;;13.73;6.73;;;;;;;17.97;51.11;100585.16;2086617;28;20025;-40
2021/03/17 11:49:30;;;;;;;15.52;7.60;;;;;;;17.98;51.19;100578.72;2080357;28;20087;-39
2021/03/17 11:50:31;;;;;;;12.37;6.70;;;;;;;17.99;51.09;100580.44;2086995;28;20451;-39
2021/03/17 11:51:32;;;;;;;13.67;8.43;;;;;;;17.99;51.14;100580.44;2084992;28;20024;-40
2021/03/17 11:52:32;;;;;;;11.40;7.33;;;;;;;18.02;51.07;100575.72;2087477;28;20259;-40
2021/03/17 11:53:34;;;;;;;12.60;7.80;;;;;;;18.01;51.24;100574.88;2086489;28;20104;-39
2021/03/17 11:54:36;;;;;;;11.02;6.60;;;;;;;18.03;51.27;100585.63;2078073;28;20471;-39
2021/03/17 11:55:37;;;;;;;15.80;7.68;;;;;;;18.05;51.44;100580.91;2077271;28;20490;-39
2021/03/17 11:56:38;;;;;;;9.27;6.33;;;;;;;18.06;51.19;100569.03;2086521;28;20079;-39
2021/03/17 11:57:38;;;;;;;23.87;9.83;;;;;;;18.06;51.44;100577.22;2086006;28;20051;-39
2021/03/17 11:58:39;;;;;;;12.50;7.80;;;;;;;18.07;51.64;100584.38;2087191;28;20033;-39
2021/03/17 11:59:39;;;;;;;15.27;7.80;;;;;;;18.06;51.61;100586.25;2086247;28;20081;-39
2021/03/17 12:00:41;;;;;;;11.70;6.97;;;;;;;18.06;51.75;100577.22;2085569;28;20030;-39
2021/03/17 12:01:41;;;;;;;12.65;6.00;;;;;;;18.05;51.71;100576.31;2086830;28;20067;-39
2021/03/17 12:02:42;;;;;;;13.23;6.47;;;;;;;18.04;51.56;100571.00;2094048;28;20542;-39
2021/03/17 12:03:42;;;;;;;11.40;7.27;;;;;;;18.05;51.61;100575.47;2098145;28;20629;-39
2021/03/17 12:04:42;;;;;;;14.47;7.23;;;;;;;18.04;51.53;100568.28;2087421;28;20100;-40
2021/03/17 12:05:44;;;;;;;12.90;7.90;;;;;;;18.06;51.43;100574.47;2082954;28;20354;-39
2021/03/17 12:06:44;;;;;;;10.48;6.88;;;;;;;18.05;51.54;100570.00;2087188;28;20040;-39
2021/03/17 12:07:46;;;;;;;12.60;6.13;;;;;;;18.08;51.65;100565.16;2087251;28;20024;-39
2021/03/17 12:08:48;;;;;;;12.15;7.15;;;;;;;18.10;51.29;100556.84;2086386;28;20021;-39
2021/03/17 12:09:48;;;;;;;12.57;7.03;;;;;;;18.10;51.38;100562.28;2082442;28;20041;-39
2021/03/17 12:10:51;;;;;;;10.13;6.47;;;;;;;18.10;51.17;100565.88;2085494;28;20044;-39
2021/03/17 12:11:52;;;;;;;12.30;7.50;;;;;;;18.11;51.16;100561.31;2087548;28;20029;-39
2021/03/17 12:12:52;;;;;;;10.03;7.03;;;;;;;18.12;51.32;100563.03;2086662;28;20104;-39
2021/03/17 12:13:53;;;;;;;15.40;7.70;;;;;;;18.11;51.22;100564.03;2084949;28;20032;-39
2021/03/17 12:14:53;;;;;;;11.17;6.93;;;;;;;18.13;51.25;100554.72;2081016;28;20458;-39
2021/03/17 12:15:54;;;;;;;14.20;6.53;;;;;;;18.15;50.97;100560.03;2084444;28;20039;-38
2021/03/17 12:16:54;;;;;;;13.50;7.40;;;;;;;18.19;50.85;100577.88;2077477;28;20155;-39
2021/03/17 12:17:56;;;;;;;13.93;7.07;;;;;;;18.19;51.10;100566.97;2068113;28;20074;-40
2021/03/17 12:18:56;;;;;;;11.68;6.80;;;;;;;18.19;50.91;100561.50;2077488;28;20037;-39
2021/03/17 12:19:57;;;;;;;11.20;6.47;;;;;;;18.19;50.74;100569.69;2073993;28;20054;-42
2021/03/17 12:20:58;;;;;;;10.90;6.73;;;;;;;18.19;50.91;100566.97;2078322;28;20022;-39
2021/03/17 12:21:58;;;;;;;11.33;6.10;;;;;;;18.17;50.94;100569.81;2081971;28;20117;-39
2021/03/17 12:23:00;;;;;;;10.37;5.73;;;;;;;18.13;50.85;100567.50;2080598;28;20022;-40
2021/03/17 12:24:01;;;;;;;10.35;6.22;;;;;;;18.20;50.79;100561.38;2080568;28;20021;-39
2021/03/17 12:25:03;;;;;;;10.07;5.87;;;;;;;18.21;50.78;100564.97;2082044;28;20021;-39
2021/03/17 12:26:04;;;;;;;7.95;5.95;;;;;;;18.20;50.65;100563.22;2081210;28;20445;-39
2021/03/17 12:27:04;;;;;;;11.02;5.93;;;;;;;18.20;50.55;100563.22;2081045;28;20037;-40
2021/03/17 12:28:06;;;;;;;13.17;6.30;;;;;;;18.23;50.54;100562.97;2074791;28;20030;-39
2021/03/17 12:29:06;;;;;;;11.35;6.68;;;;;;;18.22;50.54;100558.50;2078110;28;20352;-39
2021/03/17 12:30:12;;;;;;;9.70;6.50;;;;;;;18.23;50.71;100562.97;2081820;28;20028;-39
2021/03/17 12:31:14;;;;;;;14.80;7.32;;;;;;;18.23;50.53;100557.53;2080418;28;20022;-39
2021/03/17 12:32:16;;;;;;;11.25;5.97;;;;;;;18.21;50.63;100559.50;2081399;28;20030;-39
2021/03/17 12:33:16;;;;;;;9.07;5.90;;;;;;;18.21;50.76;100559.50;2074091;28;20026;-39
2021/03/17 12:34:16;;;;;;;9.73;6.33;;;;;;;18.19;50.76;100553.31;2075306;28;20519;-39
2021/03/17 12:35:19;;;;;;;11.70;6.73;;;;;;;18.20;50.92;100553.19;2082047;28;20025;-39
2021/03/17 12:36:19;;;;;;;11.85;6.03;;;;;;;18.19;50.63;100548.72;2077630;28;20025;-39
2021/03/17 12:37:20;;;;;;;13.93;6.87;;;;;;;18.19;50.68;100550.59;2082048;28;20029;-39
2021/03/17 12:38:20;;;;;;;13.60;6.10;;;;;;;18.18;50.71;100555.19;2081073;28;20406;-39
2021/03/17 12:39:21;;;;;;;11.23;6.53;;;;;;;18.17;50.62;100552.56;2081558;28;20021;-39